createdAt,value
2023-05-19T00:02:34.354Z,7.87
2023-05-19T00:05:05.264Z,6.70
2023-05-19T00:07:35.997Z,7.03
2023-05-19T00:10:08.164Z,7.33
2023-05-19T00:12:39.978Z,6.47
2023-05-19T00:15:12.691Z,7.10
2023-05-19T00:17:42.829Z,6.77
2023-05-19T00:20:15.553Z,6.83
2023-05-19T00:22:45.800Z,6.53
2023-05-19T00:25:15.977Z,6.03
2023-05-19T00:27:46.956Z,6.63
2023-05-19T00:30:17.284Z,6.63
2023-05-19T00:32:47.042Z,6.10
2023-05-19T00:35:17.465Z,6.93
2023-05-19T00:37:47.711Z,6.77
2023-05-19T00:40:18.423Z,7.40
2023-05-19T00:42:49.671Z,7.20
2023-05-19T00:45:19.538Z,7.80
2023-05-19T00:47:50.035Z,7.33
2023-05-19T00:50:19.800Z,7.07
2023-05-19T00:52:49.568Z,7.03
2023-05-19T00:55:19.902Z,7.00
2023-05-19T00:57:52.183Z,8.40
2023-05-19T01:00:22.284Z,6.53
2023-05-19T01:02:52.738Z,7.60
2023-05-19T01:05:23.311Z,7.47
2023-05-19T01:07:55.890Z,7.17
2023-05-19T01:10:25.520Z,7.23
2023-05-19T01:12:57.279Z,5.67
2023-05-19T01:15:28.930Z,6.67
2023-05-19T01:18:07.526Z,7.40
2023-05-19T01:20:41.220Z,7.53
2023-05-19T01:23:31.546Z,7.17
2023-05-19T01:26:31.421Z,7.10
2023-05-19T01:29:29.110Z,7.30
2023-05-19T01:32:02.715Z,6.63
2023-05-19T01:34:34.299Z,7.60
2023-05-19T01:37:05.920Z,7.63
2023-05-19T01:39:36.025Z,6.60
2023-05-19T01:42:06.770Z,7.73
2023-05-19T01:44:36.696Z,7.47
2023-05-19T01:47:08.115Z,7.20
2023-05-19T01:49:38.400Z,7.63
2023-05-19T01:52:08.308Z,6.23
2023-05-19T01:54:39.325Z,7.33
2023-05-19T01:57:16.794Z,6.37
2023-05-19T01:59:58.923Z,7.23
2023-05-19T02:02:36.337Z,7.57
2023-05-19T02:05:14.764Z,7.57
2023-05-19T02:07:49.797Z,6.60
2023-05-19T02:10:25.730Z,7.20
2023-05-19T02:12:56.476Z,7.00
2023-05-19T02:15:28.069Z,8.00
2023-05-19T02:18:01.102Z,7.60
2023-05-19T02:20:31.290Z,7.10
2023-05-19T02:23:01.507Z,6.60
2023-05-19T02:25:31.276Z,6.77
2023-05-19T02:28:01.103Z,6.70
2023-05-19T02:30:32.526Z,7.53
2023-05-19T02:33:06.726Z,7.50
2023-05-19T02:35:36.947Z,7.30
2023-05-19T02:38:06.908Z,6.90
2023-05-19T02:40:36.881Z,7.63
2023-05-19T02:43:06.841Z,8.03
2023-05-19T02:45:37.136Z,6.37
2023-05-19T02:48:08.967Z,7.13
2023-05-19T02:50:38.438Z,6.93
2023-05-19T02:53:08.658Z,7.10
2023-05-19T02:55:38.975Z,6.80
2023-05-19T02:58:09.030Z,6.90
2023-05-19T03:00:38.932Z,6.27
2023-05-19T03:03:11.302Z,7.10
2023-05-19T03:05:40.566Z,6.40
2023-05-19T03:08:11.458Z,6.60
2023-05-19T03:10:41.451Z,7.37
2023-05-19T03:13:11.866Z,7.20
2023-05-19T03:15:42.779Z,7.67
2023-05-19T03:18:15.141Z,7.23
2023-05-19T03:20:45.988Z,7.13
2023-05-19T03:23:15.881Z,7.57
2023-05-19T03:25:46.269Z,7.60
2023-05-19T03:28:16.019Z,7.70
2023-05-19T03:30:46.754Z,7.37
2023-05-19T03:33:19.666Z,7.30
2023-05-19T03:35:50.410Z,6.30
2023-05-19T03:38:20.331Z,6.93
2023-05-19T03:40:51.251Z,7.60
2023-05-19T03:43:20.965Z,7.70
2023-05-19T03:45:51.159Z,8.10
2023-05-19T03:48:22.098Z,8.23
2023-05-19T03:50:51.801Z,7.97
2023-05-19T03:53:22.152Z,7.47
2023-05-19T03:55:52.153Z,8.67
2023-05-19T03:58:21.935Z,6.60
2023-05-19T04:00:51.947Z,8.43
2023-05-19T04:03:24.437Z,7.60
2023-05-19T04:05:55.880Z,7.90
2023-05-19T04:08:25.544Z,7.83
2023-05-19T04:10:56.129Z,7.73
2023-05-19T04:13:26.275Z,8.13
2023-05-19T04:15:56.467Z,7.00
2023-05-19T04:18:29.209Z,8.10
2023-05-19T04:20:59.811Z,7.60
2023-05-19T04:23:30.034Z,8.30
2023-05-19T04:26:02.518Z,7.43
2023-05-19T04:28:32.386Z,6.77
2023-05-19T04:31:03.787Z,8.23
2023-05-19T04:33:35.111Z,8.77
2023-05-19T04:36:08.753Z,7.93
2023-05-19T04:38:41.053Z,7.30
2023-05-19T04:41:11.130Z,7.90
2023-05-19T04:43:42.128Z,7.23
2023-05-19T04:46:13.833Z,8.13
2023-05-19T04:48:45.816Z,7.63
2023-05-19T04:51:18.122Z,8.50
2023-05-19T04:53:47.867Z,9.00
2023-05-19T04:56:18.194Z,8.10
2023-05-19T04:58:48.388Z,8.43
2023-05-19T05:01:21.915Z,9.43
2023-05-19T05:03:55.701Z,7.23
2023-05-19T05:06:25.868Z,8.90
2023-05-19T05:08:57.285Z,7.77
2023-05-19T05:11:29.290Z,8.20
2023-05-19T05:14:00.417Z,7.83
2023-05-19T05:16:32.593Z,9.10
2023-05-19T05:19:06.358Z,8.53
2023-05-19T05:21:37.341Z,7.90
2023-05-19T05:24:08.721Z,8.37
2023-05-19T05:26:39.954Z,8.23
2023-05-19T05:29:10.776Z,8.37
2023-05-19T05:31:41.598Z,8.27
2023-05-19T05:34:13.140Z,8.03
2023-05-19T05:36:42.965Z,8.20
2023-05-19T05:39:13.634Z,7.73
2023-05-19T05:41:44.009Z,7.60
2023-05-19T05:44:13.982Z,8.23
2023-05-19T05:46:44.745Z,8.40
2023-05-19T05:49:17.455Z,9.37
2023-05-19T05:52:05.014Z,8.63
2023-05-19T05:54:36.825Z,7.90
2023-05-19T05:57:08.109Z,8.07
2023-05-19T05:59:39.072Z,7.20
2023-05-19T06:02:09.978Z,9.83
2023-05-19T06:04:42.965Z,8.30
2023-05-19T06:07:13.230Z,9.07
2023-05-19T06:09:43.292Z,8.33
2023-05-19T06:12:13.179Z,8.30
2023-05-19T06:14:43.264Z,7.93
2023-05-19T06:17:13.475Z,8.47
2023-05-19T06:19:44.633Z,7.40
2023-05-19T06:22:14.517Z,8.47
2023-05-19T06:24:44.697Z,8.07
2023-05-19T06:27:14.600Z,8.57
2023-05-19T06:29:44.150Z,8.57
2023-05-19T06:32:14.010Z,8.80
2023-05-19T06:34:46.138Z,6.83
2023-05-19T06:37:19.825Z,8.20
2023-05-19T06:39:52.496Z,8.07
2023-05-19T06:42:24.617Z,7.70
2023-05-19T06:44:55.158Z,7.10
2023-05-19T06:47:25.108Z,7.70
2023-05-19T06:49:56.911Z,6.50
2023-05-19T06:52:27.261Z,9.27
2023-05-19T06:54:57.377Z,10.07
2023-05-19T06:57:28.085Z,8.50
2023-05-19T06:59:59.201Z,9.80
2023-05-19T07:02:29.966Z,8.87
2023-05-19T07:05:01.435Z,9.33
2023-05-19T07:07:31.401Z,9.43
2023-05-19T07:10:01.329Z,10.50
2023-05-19T07:12:31.348Z,9.60
2023-05-19T07:15:01.289Z,9.23
2023-05-19T07:17:32.120Z,9.17
2023-05-19T07:20:07.139Z,8.93
2023-05-19T07:22:37.151Z,9.87
2023-05-19T07:25:07.641Z,9.70
2023-05-19T07:27:38.809Z,8.63
2023-05-19T07:30:11.055Z,9.87
2023-05-19T07:32:41.239Z,10.40
2023-05-19T07:35:14.171Z,9.77
2023-05-19T07:37:43.992Z,10.10
2023-05-19T07:40:16.549Z,10.90
2023-05-19T07:42:46.984Z,9.60
2023-05-19T07:45:18.942Z,9.70
2023-05-19T07:47:49.713Z,10.93
2023-05-19T07:50:21.871Z,10.10
2023-05-19T07:52:52.103Z,11.50
2023-05-19T07:55:23.725Z,11.20
2023-05-19T07:57:54.178Z,9.40
2023-05-19T08:00:24.672Z,12.73
2023-05-19T08:02:54.617Z,12.30
2023-05-19T08:05:27.629Z,11.30
2023-05-19T08:07:58.557Z,11.73
2023-05-19T08:10:29.073Z,11.00
2023-05-19T08:12:58.774Z,8.83
2023-05-19T08:15:29.636Z,12.17
2023-05-19T08:17:59.688Z,11.00
2023-05-19T08:20:31.768Z,11.60
2023-05-19T08:23:02.022Z,10.50
2023-05-19T08:25:32.947Z,10.07
2023-05-19T08:28:03.832Z,11.03
2023-05-19T08:30:41.042Z,10.47
2023-05-19T08:33:22.264Z,11.03
2023-05-19T08:36:01.992Z,10.83
2023-05-19T08:38:39.458Z,10.40
2023-05-19T08:41:17.107Z,10.40
2023-05-19T08:43:55.519Z,10.83
2023-05-19T08:46:33.741Z,11.20
2023-05-19T08:49:18.148Z,11.67
2023-05-19T08:52:06.841Z,11.40
2023-05-19T08:54:49.914Z,11.27
2023-05-19T08:57:37.544Z,10.87
2023-05-19T09:00:18.163Z,12.10
2023-05-19T09:03:05.925Z,12.20
2023-05-19T09:05:54.894Z,10.80
2023-05-19T09:08:36.135Z,13.33
2023-05-19T09:11:12.514Z,10.90
2023-05-19T09:13:49.906Z,10.53
2023-05-19T09:16:30.097Z,13.20
2023-05-19T09:19:10.798Z,11.17
2023-05-19T09:21:47.771Z,8.50
2023-05-19T09:24:25.995Z,11.60
2023-05-19T09:27:03.344Z,9.80
2023-05-19T09:29:39.036Z,12.20
2023-05-19T09:32:23.726Z,10.00
2023-05-19T09:35:04.933Z,9.43
2023-05-19T09:37:39.758Z,9.40
2023-05-19T09:40:50.891Z,10.27
2023-05-19T09:43:29.010Z,10.20
2023-05-19T09:46:03.351Z,10.27
2023-05-19T09:48:34.862Z,10.73
2023-05-19T09:51:08.280Z,12.13
2023-05-19T09:53:40.358Z,10.37
2023-05-19T09:56:14.593Z,9.70
2023-05-19T09:58:45.104Z,9.60
2023-05-19T10:01:15.398Z,11.67
2023-05-19T10:03:47.928Z,9.50
2023-05-19T10:06:20.997Z,9.70
2023-05-19T10:08:52.959Z,9.10
2023-05-19T10:11:25.837Z,11.00
2023-05-19T10:13:57.010Z,8.97
2023-05-19T10:16:30.005Z,9.00
2023-05-19T10:19:03.003Z,8.80
2023-05-19T10:21:33.711Z,10.37
2023-05-19T10:24:06.987Z,10.73
2023-05-19T10:26:41.316Z,9.10
2023-05-19T10:29:12.090Z,7.63
2023-05-19T10:31:43.681Z,9.07
2023-05-19T10:34:27.382Z,7.73
2023-05-19T10:37:05.075Z,8.17
2023-05-19T10:39:39.986Z,8.25
2023-05-19T10:42:18.502Z,8.93
2023-05-19T10:44:58.916Z,8.03
2023-05-19T10:47:29.362Z,7.00
2023-05-19T10:49:59.652Z,6.67
2023-05-19T10:52:31.124Z,6.73
2023-05-19T10:55:05.442Z,5.90
2023-05-19T10:57:37.608Z,5.20
2023-05-19T11:00:30.089Z,6.83
2023-05-19T11:03:15.382Z,7.03
2023-05-19T11:05:45.840Z,6.90
2023-05-19T11:08:17.677Z,7.07
2023-05-19T11:10:49.022Z,7.80
2023-05-19T11:13:26.163Z,7.57
2023-05-19T11:16:02.076Z,5.50
2023-05-19T11:18:34.732Z,6.17
2023-05-19T11:21:05.868Z,6.23
2023-05-19T11:23:39.055Z,5.43
2023-05-19T11:26:11.270Z,4.27
2023-05-19T11:28:44.332Z,4.90
2023-05-19T11:31:16.115Z,5.93
2023-05-19T11:33:46.354Z,5.70
2023-05-19T11:36:19.022Z,5.17
2023-05-19T11:38:49.699Z,5.77
2023-05-19T11:41:21.586Z,5.60
2023-05-19T11:43:53.199Z,6.00
2023-05-19T11:46:24.501Z,5.67
2023-05-19T11:48:57.689Z,5.97
2023-05-19T11:51:28.147Z,6.17
2023-05-19T11:53:58.660Z,5.70
2023-05-19T11:56:28.644Z,5.70
2023-05-19T11:59:00.515Z,6.03
2023-05-19T12:01:32.580Z,5.40
2023-05-19T12:04:03.090Z,5.67
2023-05-19T12:06:33.407Z,7.47
2023-05-19T12:09:04.415Z,5.60
2023-05-19T12:11:34.609Z,6.30
2023-05-19T12:14:06.952Z,5.70
2023-05-19T12:16:38.795Z,5.57
2023-05-19T12:19:10.365Z,5.30
2023-05-19T12:21:41.532Z,4.87
2023-05-19T12:24:11.965Z,5.90
2023-05-19T12:26:43.659Z,5.60
2023-05-19T12:29:17.324Z,5.33
2023-05-19T12:31:50.004Z,5.13
2023-05-19T12:34:19.756Z,5.40
2023-05-19T12:36:50.017Z,5.17
2023-05-19T12:39:21.506Z,6.10
2023-05-19T12:41:52.520Z,5.60
2023-05-19T12:44:23.772Z,5.00
2023-05-19T12:46:54.892Z,4.40
2023-05-19T12:49:24.740Z,5.67
2023-05-19T12:51:55.340Z,5.57
2023-05-19T12:54:26.532Z,5.20
2023-05-19T12:56:56.533Z,5.87
2023-05-19T12:59:38.276Z,5.20
